White Horse Beach, MA

11:33 AM EDT on May 28, 2015 (GMT -0400)
White Horse Beach | | Change Station
CLOSE
Current Station
Personal Weather Station
Location: Plymouth, MA
Elevation: 39 ft
Nearby Weather Stations

Elev 39 ft 41.93 °N, 70.55 °W | Updated 11 minutes ago

Partly Cloudy
Partly Cloudy
74.3 °F
Feels Like 76 °F
N
4.7
Wind Variable Wind from South

Today
High -- | Low -- °F
--% Chance of Precip.
Yesterday
High -- | Low -- °F
Precip. -- in
5:11 AM 8:07 PM
Waxing Gibbous, 76% visible
Pressure 30.17 in
Visibility 10.0 miles
Clouds Clear
Heat Index 76 °F
Dew Point 64 °F
Humidity 71%
Rainfall 0.00 in
Snow Depth Not available.
UV 10 out of 12
Pollen 10.20 out of 12
Air Quality Not available.
Flu Activity Local Activity
METAR KPYM 281452Z AUTO 20008G18KT 10SM CLR 22/17 A3017 RMK AO2 SLP217 T02220172 58005

More Conditions Fewer Conditions

Pressure 30.17 in
Visibility 10.0 miles
Clouds Clear
Heat Index 76 °F
Dew Point 64 °F
Humidity 71%
Rainfall 0.00 in
Snow Depth Not available.
UV 10 out of 12
Pollen 10.20 out of 12
Air Quality Not available.
Flu Activity Local Activity
METAR KPYM 281452Z AUTO 20008G18KT 10SM CLR 22/17 A3017 RMK AO2 SLP217 T02220172 58005

More Conditions Fewer Conditions

10-Day Weather Forecast

Almanac

Astronomy

May. 28, 2015 Rise Set
Actual Time
Civil Twilight
Nautical Twilight
Astronomical Twilight
Moon
Length of Visible Light
Length of Day
Tomorrow will be .
, % of the Moon is Illuminated

Today's Extremes

State Highs State Lows

Community

WunderPhotos

Upload Photos

1,824,999 photos uploaded!

WunderBlogs® & News

Nearby

Air Quality

  Air Quality AQ Index Pollutant
Not available.

Snow Depth

Station Depth Elevation

Earthquake Activity

City Distance Mag. Time & Date
Minimum magnitude displayed is 2.5.

Coastal Water Temperatures

Place Temperature

Stations

Nearby Weather Stations

Station Location Temp. Windchill Dew Point Humidity Wind Precip. Elev Updated Type